Manitou, Canada
Current Conditions -  °F | °C
As of 11:35 AM on Thursday 30 Oct 2014 (Local Time) from KD55 Reporting Station
Overcast Overcast  
Wind Chill: 17°   Ceiling: 1700
Heat Index: 30°   Visibility: 10mi
Dew Point: 23°   Wind: 22mph
Humidity: 75%   Direction: 360°N
Pressure: 30.33"   Gusts: 28mph
Location:  49.23°N, 98.53°W
Report Text: KD55 301635Z AUTO 36019G24KT 10SM OVC017 M01/M05 A3033 RMK AO2
Loading
Personal Weather Stations






























Interactive Weather Map
Tropical Storm Tracking
New forecast layout! Learn more

10-Day Weather Forecast

Advertisements
Track Severe Weather on mobile